^^
Saratoga-Weather Station Historical Data
Daily Summary for August 29, 2020 Units:  Both    English   Metric
Daily Weekly Monthly Yearly Custom
  High: Low: Average:
Temperature: 72 °F /  22.2 °C 52.2 °F /  11.2 °C 61.3 °F /  16.3 °C
Dew Point: 56.1 °F /  13.4 °C 48.9 °F /  9.4 °C 52.5 °F /  11.4 °C
Humidity: 96% 45% 75%
Wind Speed: 10.1mph /  16.3km/h - 1.7mph /  2.8km/h
Wind Gust: 18mph /  29km/h - -
Wind- - WSW
Pressure: 29.7 in /  1006.1 hPa 29.6 in /  1002.4 hPa -
Precipitation: 0.01 in /  0.2 mm    
Historical Graphs
 
 
Tabular Data for August 29, 2020
Time Temperature Dew Point Pressure Wind Wind Speed Wind Gust Humidity Rainfall Rate (Hourly) solar
00:01 54.9 °F /  12.7 °C 52.9 °F /  11.6 °C 29.6in /  1002.4hPa Calm     93% 0in /  0.0mm 0 W/m2
00:06 54.7 °F /  12.6 °C 52.7 °F /  11.5 °C 29.6in /  1002.4hPa Calm     93% 0in /  0.0mm 0 W/m2
00:11 54.7 °F /  12.6 °C 52.7 °F /  11.5 °C 29.6in /  1002.7hPa Calm   1mph /  1.6km/h 93% 0in /  0.0mm 0 W/m2
00:16 54.3 °F /  12.4 °C 52.3 °F /  11.3 °C 29.6in /  1002.7hPa Calm     93% 0in /  0.0mm 0 W/m2
00:21 54.1 °F /  12.3 °C 52.2 °F /  11.2 °C 29.6in /  1002.7hPa Calm     93% 0in /  0.0mm 0 W/m2
00:26 54 °F /  12.2 °C 52 °F /  11.1 °C 29.6in /  1002.7hPa Calm   2mph /  3.2km/h 93% 0in /  0.0mm 0 W/m2
00:31 54 °F /  12.2 °C 52 °F /  11.1 °C 29.6in /  1002.7hPa Calm     93% 0in /  0.0mm 0 W/m2
00:36 54 °F /  12.2 °C 52.3 °F /  11.3 °C 29.6in /  1002.7hPa Calm   2mph /  3.2km/h 94% 0in /  0.0mm 0 W/m2
00:41 54 °F /  12.2 °C 52.3 °F /  11.3 °C 29.6in /  1002.7hPa Calm     94% 0in /  0.0mm 0 W/m2
00:46 54 °F /  12.2 °C 52.3 °F /  11.3 °C 29.6in /  1002.7hPa Calm     94% 0in /  0.0mm 0 W/m2
00:51 54.1 °F /  12.3 °C 52.5 °F /  11.4 °C 29.6in /  1002.7hPa Calm     94% 0in /  0.0mm 0 W/m2
00:56 54.1 °F /  12.3 °C 52.5 °F /  11.4 °C 29.6in /  1002.7hPa Calm     94% 0in /  0.0mm 0 W/m2
01:01 54.1 °F /  12.3 °C 52.5 °F /  11.4 °C 29.6in /  1002.7hPa Calm     94% 0in /  0.0mm 0 W/m2
01:06 54.1 °F /  12.3 °C 52.5 °F /  11.4 °C 29.6in /  1002.7hPa Calm     94% 0in /  0.0mm 0 W/m2
01:11 54.1 °F /  12.3 °C 52.5 °F /  11.4 °C 29.6in /  1002.7hPa Calm     94% 0in /  0.0mm 0 W/m2
01:16 54.1 °F /  12.3 °C 52.5 °F /  11.4 °C 29.6in /  1002.7hPa Calm     94% 0in /  0.0mm 0 W/m2
01:21 54.1 °F /  12.3 °C 52.7 °F /  11.5 °C 29.6in /  1002.7hPa Calm     95% 0in /  0.0mm 0 W/m2
01:26 54.1 °F /  12.3 °C 52.7 °F /  11.5 °C 29.6in /  1002.7hPa Calm     95% 0in /  0.0mm 0 W/m2
01:31 54.3 °F /  12.4 °C 52.9 °F /  11.6 °C 29.6in /  1002.7hPa Calm   2mph /  3.2km/h 95% 0in /  0.0mm 0 W/m2
01:36 55 °F /  12.8 °C 53.6 °F /  12 °C 29.6in /  1002.7hPa Calm   2mph /  3.2km/h 95% 0in /  0.0mm 0 W/m2
01:41 55.2 °F /  12.9 °C 54.1 °F /  12.3 °C 29.6in /  1002.7hPa Calm   2mph /  3.2km/h 96% 0in /  0.0mm 0 W/m2
01:46 55.6 °F /  13.1 °C 54.5 °F /  12.5 °C 29.6in /  1003.0hPa Calm   3mph /  4.8km/h 96% 0in /  0.0mm 0 W/m2
01:51 55.8 °F /  13.2 °C 54.3 °F /  12.4 °C 29.6in /  1002.7hPa WNW 0.9mph /  1.4km/h 1mph /  1.6km/h 95% 0in /  0.0mm 0 W/m2
01:56 55.9 °F /  13.3 °C 54.9 °F /  12.7 °C 29.6in /  1003.0hPa Calm     96% 0in /  0.0mm 0 W/m2
02:01 55.9 °F /  13.3 °C 54.5 °F /  12.5 °C 29.6in /  1002.7hPa NW 0.9mph /  1.4km/h 1mph /  1.6km/h 95% 0in /  0.0mm 0 W/m2
02:06 56.1 °F /  13.4 °C 54.7 °F /  12.6 °C 29.6in /  1003.0hPa Calm   1mph /  1.6km/h 95% 0in /  0.0mm 0 W/m2
02:11 56.1 °F /  13.4 °C 54.7 °F /  12.6 °C 29.6in /  1003.0hPa WSW 0.9mph /  1.4km/h 2mph /  3.2km/h 95% 0in /  0.0mm 0 W/m2
02:16 56.1 °F /  13.4 °C 54.7 °F /  12.6 °C 29.6in /  1003.0hPa NW 0.9mph /  1.4km/h 1mph /  1.6km/h 95% 0in /  0.0mm 0 W/m2
02:21 56.3 °F /  13.5 °C 54.9 °F /  12.7 °C 29.6in /  1002.7hPa Calm   3mph /  4.8km/h 95% 0in /  0.0mm 0 W/m2
02:27 56.3 °F /  13.5 °C 54.9 °F /  12.7 °C 29.6in /  1003.0hPa Calm   1mph /  1.6km/h 95% 0in /  0.0mm 0 W/m2
02:32 56.1 °F /  13.4 °C 54.7 °F /  12.6 °C 29.6in /  1003.0hPa NNW 0.9mph /  1.4km/h 2mph /  3.2km/h 95% 0in /  0.0mm 0 W/m2
02:37 56.1 °F /  13.4 °C 54.7 °F /  12.6 °C 29.6in /  1003.0hPa NNW 0.9mph /  1.4km/h 2mph /  3.2km/h 95% 0in /  0.0mm 0 W/m2
02:42 56.1 °F /  13.4 °C 54.7 °F /  12.6 °C 29.6in /  1003.0hPa North 0.9mph /  1.4km/h 2mph /  3.2km/h 95% 0in /  0.0mm 0 W/m2
02:47 56.1 °F /  13.4 °C 54.5 °F /  12.5 °C 29.6in /  1002.7hPa Calm     94% 0in /  0.0mm 0 W/m2
02:52 56.1 °F /  13.4 °C 54.5 °F /  12.5 °C 29.6in /  1003.0hPa Calm   3mph /  4.8km/h 94% 0in /  0.0mm 0 W/m2
02:57 55.9 °F /  13.3 °C 54.3 °F /  12.4 °C 29.6in /  1003.0hPa Calm   1mph /  1.6km/h 94% 0in /  0.0mm 0 W/m2
03:02 55.9 °F /  13.3 °C 54.3 °F /  12.4 °C 29.6in /  1002.7hPa SE 0.9mph /  1.4km/h 2mph /  3.2km/h 94% 0in /  0.0mm 0 W/m2
03:07 55.8 °F /  13.2 °C 54.1 °F /  12.3 °C 29.6in /  1002.7hPa Calm   1mph /  1.6km/h 94% 0in /  0.0mm 0 W/m2
03:12 55.8 °F /  13.2 °C 54.1 °F /  12.3 °C 29.6in /  1003.0hPa Calm   2mph /  3.2km/h 94% 0in /  0.0mm 0 W/m2
03:17 55.6 °F /  13.1 °C 54 °F /  12.2 °C 29.6in /  1003.0hPa Calm   1mph /  1.6km/h 94% 0in /  0.0mm 0 W/m2
03:22 55.4 °F /  13 °C 53.8 °F /  12.1 °C 29.6in /  1003.0hPa NE 2mph /  3.2km/h 2mph /  3.2km/h 94% 0in /  0.0mm 0 W/m2
03:27 55.4 °F /  13 °C 53.8 °F /  12.1 °C 29.6in /  1003.0hPa Calm     94% 0in /  0.0mm 0 W/m2
03:32 55.2 °F /  12.9 °C 53.6 °F /  12 °C 29.6in /  1003.0hPa Calm   2mph /  3.2km/h 94% 0in /  0.0mm 0 W/m2
03:37 55 °F /  12.8 °C 53.4 °F /  11.9 °C 29.6in /  1003.0hPa NW 0.9mph /  1.4km/h 2mph /  3.2km/h 94% 0in /  0.0mm 0 W/m2
03:42 55 °F /  12.8 °C 53.4 °F /  11.9 °C 29.6in /  1003.0hPa NNW 0.9mph /  1.4km/h 2mph /  3.2km/h 94% 0in /  0.0mm 0 W/m2
03:47 55 °F /  12.8 °C 53.4 °F /  11.9 °C 29.6in /  1003.0hPa NNE 0.9mph /  1.4km/h 2mph /  3.2km/h 94% 0in /  0.0mm 0 W/m2
03:52 55 °F /  12.8 °C 53.4 °F /  11.9 °C 29.6in /  1003.0hPa Calm   1mph /  1.6km/h 94% 0in /  0.0mm 0 W/m2
03:57 54.9 °F /  12.7 °C 53.2 °F /  11.8 °C 29.6in /  1003.0hPa Calm   2mph /  3.2km/h 94% 0in /  0.0mm 0 W/m2
04:02 54.9 °F /  12.7 °C 53.2 °F /  11.8 °C 29.6in /  1003.0hPa Calm   1mph /  1.6km/h 94% 0in /  0.0mm 0 W/m2
04:07 54.7 °F /  12.6 °C 53.1 °F /  11.7 °C 29.6in /  1003.0hPa Calm   2mph /  3.2km/h 94% 0in /  0.0mm 0 W/m2
04:13 54.7 °F /  12.6 °C 53.1 °F /  11.7 °C 29.6in /  1003.0hPa Calm   1mph /  1.6km/h 94% 0in /  0.0mm 0 W/m2
04:18 54.7 °F /  12.6 °C 53.1 °F /  11.7 °C 29.6in /  1003.0hPa Calm   1mph /  1.6km/h 94% 0in /  0.0mm 0 W/m2
04:23 54.3 °F /  12.4 °C 52.7 °F /  11.5 °C 29.6in /  1002.7hPa Calm   3mph /  4.8km/h 94% 0in /  0.0mm 0 W/m2
04:28 54.3 °F /  12.4 °C 52.7 °F /  11.5 °C 29.6in /  1002.7hPa Calm     94% 0in /  0.0mm 0 W/m2
04:33 54.5 °F /  12.5 °C 52.5 °F /  11.4 °C 29.6in /  1002.7hPa NNE 2mph /  3.2km/h 3mph /  4.8km/h 93% 0in /  0.0mm 0 W/m2
04:38 54.5 °F /  12.5 °C 52.5 °F /  11.4 °C 29.6in /  1002.7hPa NNE 0.9mph /  1.4km/h 2mph /  3.2km/h 93% 0in /  0.0mm 0 W/m2
04:43 54.5 °F /  12.5 °C 52.5 °F /  11.4 °C 29.6in /  1002.7hPa North 0.9mph /  1.4km/h 2mph /  3.2km/h 93% 0in /  0.0mm 0 W/m2
04:48 54.7 °F /  12.6 °C 52.7 °F /  11.5 °C 29.6in /  1002.7hPa NW 0.9mph /  1.4km/h 2mph /  3.2km/h 93% 0in /  0.0mm 0 W/m2
04:53 54.5 °F /  12.5 °C 52.2 °F /  11.2 °C 29.6in /  1002.7hPa Calm   1mph /  1.6km/h 92% 0in /  0.0mm 0 W/m2
04:58 54.3 °F /  12.4 °C 52 °F /  11.1 °C 29.6in /  1002.7hPa Calm   2mph /  3.2km/h 92% 0in /  0.0mm 0 W/m2
05:03 54.3 °F /  12.4 °C 52.3 °F /  11.3 °C 29.6in /  1002.7hPa Calm   1mph /  1.6km/h 93% 0in /  0.0mm 0 W/m2
05:08 54.3 °F /  12.4 °C 52.3 °F /  11.3 °C 29.6in /  1002.7hPa Calm     93% 0in /  0.0mm 0 W/m2
05:13 54.1 °F /  12.3 °C 52.2 °F /  11.2 °C 29.6in /  1002.7hPa Calm     93% 0in /  0.0mm 0 W/m2
05:18 54.3 °F /  12.4 °C 52.3 °F /  11.3 °C 29.6in /  1002.7hPa NW 0.9mph /  1.4km/h 1mph /  1.6km/h 93% 0in /  0.0mm 0 W/m2
05:23 54.3 °F /  12.4 °C 52.3 °F /  11.3 °C 29.6in /  1002.7hPa Calm   2mph /  3.2km/h 93% 0in /  0.0mm 0 W/m2
05:28 54.7 °F /  12.6 °C 52.3 °F /  11.3 °C 29.6in /  1002.7hPa NNW 2mph /  3.2km/h 2mph /  3.2km/h 92% 0.01in /  0.2mm 0 W/m2
05:33 54.9 °F /  12.7 °C 52.5 °F /  11.4 °C 29.6in /  1002.7hPa Calm   1mph /  1.6km/h 92% 0.01in /  0.2mm 0 W/m2
05:38 55 °F /  12.8 °C 52.7 °F /  11.5 °C 29.6in /  1002.7hPa Calm     92% 0.01in /  0.2mm 0 W/m2
05:43 55 °F /  12.8 °C 52.5 °F /  11.4 °C 29.6in /  1002.7hPa NNW 0.9mph /  1.4km/h 1mph /  1.6km/h 91% 0.01in /  0.2mm 0 W/m2
05:48 55 °F /  12.8 °C 52.5 °F /  11.4 °C 29.6in /  1002.7hPa NW 0.9mph /  1.4km/h 4mph /  6.4km/h 91% 0.01in /  0.2mm 0 W/m2
05:53 55 °F /  12.8 °C 52.5 °F /  11.4 °C 29.6in /  1002.7hPa Calm   1mph /  1.6km/h 91% 0.01in /  0.2mm 0 W/m2
05:58 55 °F /  12.8 °C 52.5 °F /  11.4 °C 29.6in /  1003.0hPa Calm   2mph /  3.2km/h 91% 0.01in /  0.2mm 0 W/m2
06:03 55 °F /  12.8 °C 52.2 °F /  11.2 °C 29.6in /  1003.0hPa NNW 0.9mph /  1.4km/h 1mph /  1.6km/h 90% 0.01in /  0.2mm 0 W/m2
06:08 55 °F /  12.8 °C 52.2 °F /  11.2 °C 29.6in /  1002.7hPa North 0.9mph /  1.4km/h 2mph /  3.2km/h 90% 0.01in /  0.2mm 0 W/m2
06:13 54.9 °F /  12.7 °C 52 °F /  11.1 °C 29.6in /  1003.0hPa Calm     90% 0.01in /  0.2mm 0 W/m2
06:18 54.9 °F /  12.7 °C 52 °F /  11.1 °C 29.6in /  1003.0hPa Calm   2mph /  3.2km/h 90% 0.01in /  0.2mm 0 W/m2
06:23 54.7 °F /  12.6 °C 52.2 °F /  11.2 °C 29.6in /  1003.0hPa ENE 0.9mph /  1.4km/h 2mph /  3.2km/h 91% 0.01in /  0.2mm 0 W/m2
06:28 54.3 °F /  12.4 °C 51.8 °F /  11 °C 29.6in /  1003.0hPa Calm   1mph /  1.6km/h 91% 0in /  0.0mm 0 W/m2
06:33 54 °F /  12.2 °C 51.4 °F /  10.8 °C 29.6in /  1003.0hPa ENE 0.9mph /  1.4km/h 2mph /  3.2km/h 91% 0in /  0.0mm 0 W/m2
06:38 53.8 °F /  12.1 °C 51.3 °F /  10.7 °C 29.6in /  1003.4hPa Calm   1mph /  1.6km/h 91% 0in /  0.0mm 0 W/m2
06:43 53.4 °F /  11.9 °C 51.1 °F /  10.6 °C 29.6in /  1003.0hPa Calm   1mph /  1.6km/h 92% 0in /  0.0mm 0 W/m2
06:48 53.2 °F /  11.8 °C 50.9 °F /  10.5 °C 29.6in /  1003.4hPa Calm     92% 0in /  0.0mm 0 W/m2
06:53 53.1 °F /  11.7 °C 50.7 °F /  10.4 °C 29.6in /  1003.4hPa Calm     92% 0in /  0.0mm 0 W/m2
06:58 52.7 °F /  11.5 °C 50.4 °F /  10.2 °C 29.6in /  1003.4hPa Calm     92% 0in /  0.0mm 0 W/m2
07:03 52.5 °F /  11.4 °C 50.5 °F /  10.3 °C 29.6in /  1003.4hPa Calm     93% 0in /  0.0mm 5 W/m2
07:08 52.3 °F /  11.3 °C 50.4 °F /  10.2 °C 29.6in /  1003.4hPa Calm     93% 0in /  0.0mm 7 W/m2
07:13 52.2 °F /  11.2 °C 50.2 °F /  10.1 °C 29.6in /  1003.4hPa Calm     93% 0in /  0.0mm 9 W/m2
07:18 52.2 °F /  11.2 °C 50.5 °F /  10.3 °C 29.6in /  1003.4hPa Calm     94% 0in /  0.0mm 14 W/m2
07:23 52.2 °F /  11.2 °C 50.5 °F /  10.3 °C 29.6in /  1003.7hPa Calm     94% 0in /  0.0mm 14 W/m2
07:28 52.2 °F /  11.2 °C 50.5 °F /  10.3 °C 29.6in /  1003.7hPa Calm   1mph /  1.6km/h 94% 0in /  0.0mm 18 W/m2
07:33 52.2 °F /  11.2 °C 50.5 °F /  10.3 °C 29.6in /  1003.7hPa Calm   1mph /  1.6km/h 94% 0in /  0.0mm 18 W/m2
07:38 52.3 °F /  11.3 °C 50.9 °F /  10.5 °C 29.6in /  1003.7hPa East 0.9mph /  1.4km/h 2mph /  3.2km/h 95% 0in /  0.0mm 19 W/m2
07:43 52.5 °F /  11.4 °C 51.1 °F /  10.6 °C 29.6in /  1003.7hPa ENE 0.9mph /  1.4km/h 2mph /  3.2km/h 95% 0in /  0.0mm 21 W/m2
07:48 52.9 °F /  11.6 °C 51.3 °F /  10.7 °C 29.6in /  1003.7hPa Calm     94% 0in /  0.0mm 23 W/m2
07:53 53.1 °F /  11.7 °C 51.4 °F /  10.8 °C 29.6in /  1003.7hPa Calm     94% 0in /  0.0mm 26 W/m2
07:59 53.1 °F /  11.7 °C 51.6 °F /  10.9 °C 29.6in /  1003.7hPa Calm     95% 0in /  0.0mm 33 W/m2
08:04 53.4 °F /  11.9 °C 51.8 °F /  11 °C 29.6in /  1003.7hPa NE 0.9mph /  1.4km/h 4mph /  6.4km/h 94% 0in /  0.0mm 35 W/m2
08:09 54 °F /  12.2 °C 52.3 °F /  11.3 °C 29.6in /  1003.7hPa Calm     94% 0in /  0.0mm 39 W/m2
08:14 54.3 °F /  12.4 °C 52.7 °F /  11.5 °C 29.6in /  1003.7hPa Calm   3mph /  4.8km/h 94% 0in /  0.0mm 42 W/m2
08:19 54.9 °F /  12.7 °C 52.9 °F /  11.6 °C 29.7in /  1004.1hPa Calm     93% 0in /  0.0mm 49 W/m2
08:24 55.6 °F /  13.1 °C 53.2 °F /  11.8 °C 29.7in /  1004.1hPa Calm   2mph /  3.2km/h 92% 0in /  0.0mm 42 W/m2
08:29 55.9 °F /  13.3 °C 53.4 °F /  11.9 °C 29.7in /  1004.1hPa NNW 0.9mph /  1.4km/h 2mph /  3.2km/h 91% 0in /  0.0mm 33 W/m2
08:34 56.5 °F /  13.6 °C 54 °F /  12.2 °C 29.7in /  1004.1hPa ENE 2mph /  3.2km/h 2mph /  3.2km/h 91% 0in /  0.0mm 40 W/m2
08:39 56.8 °F /  13.8 °C 53.6 °F /  12 °C 29.7in /  1004.1hPa Calm   1mph /  1.6km/h 89% 0in /  0.0mm 172 W/m2
08:44 57 °F /  13.9 °C 53.4 °F /  11.9 °C 29.7in /  1004.1hPa WSW 0.9mph /  1.4km/h 2mph /  3.2km/h 88% 0in /  0.0mm 218 W/m2
08:49 57.4 °F /  14.1 °C 53.8 °F /  12.1 °C 29.7in /  1004.1hPa WSW 2.9mph /  4.7km/h 4mph /  6.4km/h 88% 0in /  0.0mm 236 W/m2
08:54 57.6 °F /  14.2 °C 53.8 °F /  12.1 °C 29.7in /  1004.1hPa ESE 2mph /  3.2km/h 3mph /  4.8km/h 87% 0in /  0.0mm 246 W/m2
08:59 57.9 °F /  14.4 °C 54.1 °F /  12.3 °C 29.7in /  1004.1hPa Calm   4mph /  6.4km/h 87% 0in /  0.0mm 260 W/m2
09:04 58.1 °F /  14.5 °C 54 °F /  12.2 °C 29.7in /  1004.1hPa Calm   7mph /  11.3km/h 86% 0in /  0.0mm 274 W/m2
09:09 58.3 °F /  14.6 °C 54.1 °F /  12.3 °C 29.7in /  1004.4hPa Calm   1mph /  1.6km/h 86% 0in /  0.0mm 290 W/m2
09:14 58.5 °F /  14.7 °C 54 °F /  12.2 °C 29.7in /  1004.4hPa WNW 4mph /  6.4km/h 5mph /  8km/h 85% 0in /  0.0mm 288 W/m2
09:19 58.5 °F /  14.7 °C 54 °F /  12.2 °C 29.7in /  1004.4hPa South 0.9mph /  1.4km/h 3mph /  4.8km/h 85% 0in /  0.0mm 47 W/m2
09:24 58.8 °F /  14.9 °C 54.3 °F /  12.4 °C 29.7in /  1004.4hPa SSW 0.9mph /  1.4km/h 2mph /  3.2km/h 85% 0in /  0.0mm 311 W/m2
09:29 59 °F /  15 °C 54.5 °F /  12.5 °C 29.7in /  1004.4hPa WNW 4.9mph /  7.9km/h 5mph /  8km/h 85% 0in /  0.0mm 348 W/m2
09:35 59.2 °F /  15.1 °C 54.3 °F /  12.4 °C 29.7in /  1004.4hPa West 2mph /  3.2km/h 6mph /  9.7km/h 84% 0in /  0.0mm 373 W/m2
09:40 59.5 °F /  15.3 °C 55 °F /  12.8 °C 29.7in /  1004.4hPa NW 0.9mph /  1.4km/h 3mph /  4.8km/h 85% 0in /  0.0mm 385 W/m2
09:45 59.7 °F /  15.4 °C 55.2 °F /  12.9 °C 29.7in /  1004.4hPa WNW 2mph /  3.2km/h 3mph /  4.8km/h 85% 0in /  0.0mm 123 W/m2
09:50 59.9 °F /  15.5 °C 55 °F /  12.8 °C 29.7in /  1004.4hPa ESE 0.9mph /  1.4km/h 8mph /  12.9km/h 84% 0in /  0.0mm 448 W/m2
09:55 60.3 °F /  15.7 °C 55 °F /  12.8 °C 29.7in /  1004.4hPa WSW 0.9mph /  1.4km/h 7mph /  11.3km/h 83% 0in /  0.0mm 160 W/m2
10:00 60.4 °F /  15.8 °C 55.2 °F /  12.9 °C 29.7in /  1004.4hPa East 2mph /  3.2km/h 8mph /  12.9km/h 83% 0in /  0.0mm 524 W/m2
10:05 61.2 °F /  16.2 °C 55.6 °F /  13.1 °C 29.7in /  1004.4hPa NE 2mph /  3.2km/h 3mph /  4.8km/h 82% 0in /  0.0mm 555 W/m2
10:10 61.5 °F /  16.4 °C 54.9 °F /  12.7 °C 29.7in /  1004.4hPa NNW 4mph /  6.4km/h 7mph /  11.3km/h 79% 0in /  0.0mm 172 W/m2
10:15 61.9 °F /  16.6 °C 55.6 °F /  13.1 °C 29.7in /  1004.4hPa WNW 0.9mph /  1.4km/h 4mph /  6.4km/h 80% 0in /  0.0mm 585 W/m2
10:20 61.9 °F /  16.6 °C 55.2 °F /  12.9 °C 29.7in /  1004.4hPa WNW 4mph /  6.4km/h 9mph /  14.5km/h 79% 0in /  0.0mm 543 W/m2
10:26 62.1 °F /  16.7 °C 55.8 °F /  13.2 °C 29.7in /  1004.4hPa NW 2mph /  3.2km/h 3mph /  4.8km/h 80% 0in /  0.0mm 666 W/m2
10:31 62.2 °F /  16.8 °C 55.6 °F /  13.1 °C 29.7in /  1004.4hPa SW 0.9mph /  1.4km/h 4mph /  6.4km/h 79% 0in /  0.0mm 543 W/m2
10:36 62.4 °F /  16.9 °C 55.8 °F /  13.2 °C 29.7in /  1004.4hPa West 6mph /  9.7km/h 7mph /  11.3km/h 79% 0in /  0.0mm 322 W/m2
10:41 62.4 °F /  16.9 °C 55 °F /  12.8 °C 29.7in /  1004.4hPa WNW 4mph /  6.4km/h 11mph /  17.7km/h 77% 0in /  0.0mm 596 W/m2
10:46 62.6 °F /  17 °C 55.6 °F /  13.1 °C 29.7in /  1004.4hPa WNW 2.9mph /  4.7km/h 5mph /  8km/h 78% 0in /  0.0mm 650 W/m2
10:51 62.6 °F /  17 °C 55.2 °F /  12.9 °C 29.7in /  1004.4hPa SE 2mph /  3.2km/h 10mph /  16.1km/h 77% 0in /  0.0mm 668 W/m2
10:56 62.6 °F /  17 °C 55.2 °F /  12.9 °C 29.7in /  1004.4hPa NW 2.9mph /  4.7km/h 3mph /  4.8km/h 77% 0in /  0.0mm 675 W/m2
11:01 63 °F /  17.2 °C 55.6 °F /  13.1 °C 29.7in /  1004.4hPa NW 4.9mph /  7.9km/h 7mph /  11.3km/h 77% 0in /  0.0mm 626 W/m2
11:06 63.1 °F /  17.3 °C 55.8 °F /  13.2 °C 29.7in /  1004.4hPa NW 2mph /  3.2km/h 3mph /  4.8km/h 77% 0in /  0.0mm 673 W/m2
11:11 63 °F /  17.2 °C 54.9 °F /  12.7 °C 29.7in /  1004.4hPa NW 4.9mph /  7.9km/h 5mph /  8km/h 75% 0in /  0.0mm 837 W/m2
11:16 63.3 °F /  17.4 °C 55.2 °F /  12.9 °C 29.7in /  1004.4hPa NE 2mph /  3.2km/h 8mph /  12.9km/h 75% 0in /  0.0mm 332 W/m2
11:21 63.7 °F /  17.6 °C 55.6 °F /  13.1 °C 29.7in /  1004.4hPa Calm   6mph /  9.7km/h 75% 0in /  0.0mm 360 W/m2
11:26 64 °F /  17.8 °C 55.2 °F /  12.9 °C 29.7in /  1004.4hPa WNW 2mph /  3.2km/h 6mph /  9.7km/h 73% 0in /  0.0mm 840 W/m2
11:31 64.6 °F /  18.1 °C 56.1 °F /  13.4 °C 29.7in /  1004.4hPa WNW 4.9mph /  7.9km/h 7mph /  11.3km/h 74% 0in /  0.0mm 271 W/m2
11:36 64.6 °F /  18.1 °C 55.4 °F /  13 °C 29.7in /  1004.4hPa West 6mph /  9.7km/h 8mph /  12.9km/h 72% 0in /  0.0mm 227 W/m2
11:41 64.4 °F /  18 °C 55.2 °F /  12.9 °C 29.7in /  1004.4hPa Calm   3mph /  4.8km/h 72% 0in /  0.0mm 735 W/m2
11:46 64.9 °F /  18.3 °C 55.4 °F /  13 °C 29.7in /  1004.1hPa NNW 4mph /  6.4km/h 7mph /  11.3km/h 71% 0in /  0.0mm 744 W/m2
11:51 65.1 °F /  18.4 °C 54.7 °F /  12.6 °C 29.7in /  1004.1hPa WSW 2.9mph /  4.7km/h 5mph /  8km/h 69% 0in /  0.0mm 761 W/m2
11:56 65.8 °F /  18.8 °C 56.1 °F /  13.4 °C 29.7in /  1004.1hPa WNW 4.9mph /  7.9km/h 5mph /  8km/h 71% 0in /  0.0mm 896 W/m2
12:01 66 °F /  18.9 °C 55.2 °F /  12.9 °C 29.7in /  1004.1hPa NW 4.9mph /  7.9km/h 8mph /  12.9km/h 68% 0in /  0.0mm 202 W/m2
12:06 65.1 °F /  18.4 °C 54.3 °F /  12.4 °C 29.7in /  1004.1hPa WNW 2mph /  3.2km/h 6mph /  9.7km/h 68% 0in /  0.0mm 125 W/m2
12:11 64.9 °F /  18.3 °C 54.1 °F /  12.3 °C 29.7in /  1004.1hPa NNW 2mph /  3.2km/h 7mph /  11.3km/h 68% 0in /  0.0mm 137 W/m2
12:16 64.9 °F /  18.3 °C 53.8 °F /  12.1 °C 29.7in /  1004.1hPa NE 0.9mph /  1.4km/h 5mph /  8km/h 67% 0in /  0.0mm 814 W/m2
12:21 65.7 °F /  18.7 °C 55.2 °F /  12.9 °C 29.7in /  1004.1hPa WSW 4mph /  6.4km/h 7mph /  11.3km/h 69% 0in /  0.0mm 821 W/m2
12:26 66.7 °F /  19.3 °C 53.2 °F /  11.8 °C 29.7in /  1004.1hPa North 4.9mph /  7.9km/h 8mph /  12.9km/h 62% 0in /  0.0mm 919 W/m2
12:31 67.3 °F /  19.6 °C 53.8 °F /  12.1 °C 29.7in /  1004.1hPa West 6mph /  9.7km/h 7mph /  11.3km/h 62% 0in /  0.0mm 810 W/m2
12:36 67.6 °F /  19.8 °C 54.7 °F /  12.6 °C 29.7in /  1004.1hPa NNW 4mph /  6.4km/h 12mph /  19.3km/h 63% 0in /  0.0mm 777 W/m2
12:41 67.5 °F /  19.7 °C 53.1 °F /  11.7 °C 29.7in /  1004.1hPa NNW 0.9mph /  1.4km/h 7mph /  11.3km/h 60% 0in /  0.0mm 789 W/m2
12:46 67.6 °F /  19.8 °C 52.9 °F /  11.6 °C 29.7in /  1004.1hPa NNW 4.9mph /  7.9km/h 8mph /  12.9km/h 59% 0in /  0.0mm 826 W/m2
12:51 68 °F /  20 °C 53.6 °F /  12 °C 29.7in /  1004.1hPa WNW 8.1mph /  13km/h 10mph /  16.1km/h 60% 0in /  0.0mm 889 W/m2
12:56 68.2 °F /  20.1 °C 52.9 °F /  11.6 °C 29.7in /  1004.1hPa NW 4mph /  6.4km/h 14mph /  22.5km/h 58% 0in /  0.0mm 248 W/m2
13:01 68 °F /  20 °C 53.6 °F /  12 °C 29.7in /  1004.1hPa WNW 2.9mph /  4.7km/h 7mph /  11.3km/h 60% 0in /  0.0mm 879 W/m2
13:06 68.2 °F /  20.1 °C 53.8 °F /  12.1 °C 29.7in /  1004.1hPa NNW 2.9mph /  4.7km/h 11mph /  17.7km/h 60% 0in /  0.0mm 216 W/m2
13:11 68.5 °F /  20.3 °C 53.2 °F /  11.8 °C 29.7in /  1004.1hPa WNW 4mph /  6.4km/h 4mph /  6.4km/h 58% 0in /  0.0mm 956 W/m2
13:16 68.7 °F /  20.4 °C 54.3 °F /  12.4 °C 29.7in /  1004.1hPa West 8.9mph /  14.3km/h 11mph /  17.7km/h 60% 0in /  0.0mm 276 W/m2
13:21 67.6 °F /  19.8 °C 54.7 °F /  12.6 °C 29.7in /  1004.1hPa West 2mph /  3.2km/h 9mph /  14.5km/h 63% 0in /  0.0mm 288 W/m2
13:26 67.5 °F /  19.7 °C 54.5 °F /  12.5 °C 29.7in /  1004.1hPa WNW 2.9mph /  4.7km/h 7mph /  11.3km/h 63% 0in /  0.0mm 902 W/m2
13:31 67.8 °F /  19.9 °C 55.2 °F /  12.9 °C 29.7in /  1004.1hPa WNW 0.9mph /  1.4km/h 4mph /  6.4km/h 64% 0in /  0.0mm 863 W/m2
13:36 68.4 °F /  20.2 °C 54.9 °F /  12.7 °C 29.7in /  1004.1hPa West 4mph /  6.4km/h 8mph /  12.9km/h 62% 0in /  0.0mm 972 W/m2
13:41 68 °F /  20 °C 53.1 °F /  11.7 °C 29.7in /  1004.1hPa SE 4mph /  6.4km/h 6mph /  9.7km/h 59% 0in /  0.0mm 339 W/m2
13:46 68.4 °F /  20.2 °C 54 °F /  12.2 °C 29.7in /  1004.1hPa NW 4.9mph /  7.9km/h 7mph /  11.3km/h 60% 0in /  0.0mm 895 W/m2
13:51 68.4 °F /  20.2 °C 53.1 °F /  11.7 °C 29.7in /  1004.1hPa NW 6mph /  9.7km/h 7mph /  11.3km/h 58% 0in /  0.0mm 216 W/m2
13:56 68.2 °F /  20.1 °C 53.8 °F /  12.1 °C 29.7in /  1004.1hPa West 6.9mph /  11.1km/h 7mph /  11.3km/h 60% 0in /  0.0mm 926 W/m2
14:01 69.1 °F /  20.6 °C 54.1 °F /  12.3 °C 29.7in /  1004.1hPa WSW 2.9mph /  4.7km/h 6mph /  9.7km/h 59% 0in /  0.0mm 914 W/m2
14:06 69.4 °F /  20.8 °C 52.5 °F /  11.4 °C 29.7in /  1004.1hPa North 2mph /  3.2km/h 8mph /  12.9km/h 55% 0in /  0.0mm 1027 W/m2
14:11 69.4 °F /  20.8 °C 53.6 °F /  12 °C 29.7in /  1004.1hPa WSW 4.9mph /  7.9km/h 14mph /  22.5km/h 57% 0in /  0.0mm 921 W/m2
14:16 69.4 °F /  20.8 °C 53.1 °F /  11.7 °C 29.7in /  1004.1hPa NW 4mph /  6.4km/h 11mph /  17.7km/h 56% 0in /  0.0mm 828 W/m2
14:21 69.1 °F /  20.6 °C 53.2 °F /  11.8 °C 29.7in /  1004.1hPa NNW 2mph /  3.2km/h 3mph /  4.8km/h 57% 0in /  0.0mm 802 W/m2
14:26 69.3 °F /  20.7 °C 52.3 °F /  11.3 °C 29.7in /  1004.1hPa North 2mph /  3.2km/h 9mph /  14.5km/h 55% 0in /  0.0mm 807 W/m2
14:31 69.4 °F /  20.8 °C 52.5 °F /  11.4 °C 29.7in /  1004.1hPa West 6.9mph /  11.1km/h 18mph /  29km/h 55% 0in /  0.0mm 803 W/m2
14:36 69.4 °F /  20.8 °C 53.1 °F /  11.7 °C 29.7in /  1004.1hPa Calm   2mph /  3.2km/h 56% 0in /  0.0mm 807 W/m2
14:41 69.6 °F /  20.9 °C 53.8 °F /  12.1 °C 29.7in /  1004.1hPa West 4mph /  6.4km/h 13mph /  20.9km/h 57% 0in /  0.0mm 204 W/m2
14:46 69.6 °F /  20.9 °C 53.8 °F /  12.1 °C 29.7in /  1004.1hPa Calm   4mph /  6.4km/h 57% 0in /  0.0mm 151 W/m2
14:51 70 °F /  21.1 °C 53.1 °F /  11.7 °C 29.7in /  1004.1hPa West 10.1mph /  16.3km/h 11mph /  17.7km/h 55% 0in /  0.0mm 206 W/m2
14:56 69.4 °F /  20.8 °C 52.5 °F /  11.4 °C 29.7in /  1004.1hPa WSW 4.9mph /  7.9km/h 5mph /  8km/h 55% 0in /  0.0mm 213 W/m2
15:01 69.1 °F /  20.6 °C 52.7 °F /  11.5 °C 29.7in /  1004.1hPa ENE 2.9mph /  4.7km/h 3mph /  4.8km/h 56% 0in /  0.0mm 868 W/m2
15:06 70 °F /  21.1 °C 53.1 °F /  11.7 °C 29.7in /  1004.1hPa WNW 2.9mph /  4.7km/h 3mph /  4.8km/h 55% 0in /  0.0mm 893 W/m2
15:11 70 °F /  21.1 °C 52.5 °F /  11.4 °C 29.7in /  1004.1hPa WNW 2.9mph /  4.7km/h 6mph /  9.7km/h 54% 0in /  0.0mm 163 W/m2
15:16 70.2 °F /  21.2 °C 53.8 °F /  12.1 °C 29.7in /  1004.1hPa West 6mph /  9.7km/h 7mph /  11.3km/h 56% 0in /  0.0mm 900 W/m2
15:21 70.3 °F /  21.3 °C 52.3 °F /  11.3 °C 29.7in /  1004.1hPa WSW 2.9mph /  4.7km/h 6mph /  9.7km/h 53% 0in /  0.0mm 912 W/m2
15:26 70.7 °F /  21.5 °C 52.2 °F /  11.2 °C 29.7in /  1004.1hPa WSW 8.1mph /  13km/h 13mph /  20.9km/h 52% 0in /  0.0mm 861 W/m2
15:31 70.2 °F /  21.2 °C 51.8 °F /  11 °C 29.7in /  1004.1hPa WSW 4mph /  6.4km/h 9mph /  14.5km/h 52% 0in /  0.0mm 891 W/m2
15:36 69.8 °F /  21 °C 51.4 °F /  10.8 °C 29.7in /  1004.1hPa WNW 2.9mph /  4.7km/h 13mph /  20.9km/h 52% 0in /  0.0mm 199 W/m2
15:41 69.6 °F /  20.9 °C 52.2 °F /  11.2 °C 29.7in /  1004.1hPa West 2mph /  3.2km/h 4mph /  6.4km/h 54% 0in /  0.0mm 824 W/m2
15:46 70.2 °F /  21.2 °C 51.8 °F /  11 °C 29.7in /  1004.1hPa ESE 4mph /  6.4km/h 6mph /  9.7km/h 52% 0in /  0.0mm 821 W/m2
15:51 70.5 °F /  21.4 °C 52 °F /  11.1 °C 29.7in /  1004.1hPa WSW 2.9mph /  4.7km/h 5mph /  8km/h 52% 0in /  0.0mm 816 W/m2
15:56 70.7 °F /  21.5 °C 51.6 °F /  10.9 °C 29.7in /  1004.1hPa NNW 2.9mph /  4.7km/h 7mph /  11.3km/h 51% 0in /  0.0mm 737 W/m2
16:01 70.9 °F /  21.6 °C 51.8 °F /  11 °C 29.7in /  1004.1hPa WNW 2.9mph /  4.7km/h 7mph /  11.3km/h 51% 0in /  0.0mm 721 W/m2
16:06 70.9 °F /  21.6 °C 51.8 °F /  11 °C 29.7in /  1004.1hPa Calm   7mph /  11.3km/h 51% 0in /  0.0mm 744 W/m2
16:11 71.4 °F /  21.9 °C 51.3 °F /  10.7 °C 29.6in /  1003.7hPa NNW 6mph /  9.7km/h 8mph /  12.9km/h 49% 0in /  0.0mm 726 W/m2
16:16 71.2 °F /  21.8 °C 51.1 °F /  10.6 °C 29.7in /  1004.1hPa WSW 4mph /  6.4km/h 9mph /  14.5km/h 49% 0in /  0.0mm 638 W/m2
16:21 70.9 °F /  21.6 °C 51.3 °F /  10.7 °C 29.7in /  1004.1hPa WSW 6.9mph /  11.1km/h 10mph /  16.1km/h 50% 0in /  0.0mm 740 W/m2
16:26 70.5 °F /  21.4 °C 50.4 °F /  10.2 °C 29.7in /  1004.1hPa West 2mph /  3.2km/h 5mph /  8km/h 49% 0in /  0.0mm 710 W/m2
16:31 71.1 °F /  21.7 °C 50.4 °F /  10.2 °C 29.7in /  1004.1hPa North 4.9mph /  7.9km/h 8mph /  12.9km/h 48% 0in /  0.0mm 724 W/m2
16:36 71.2 °F /  21.8 °C 51.1 °F /  10.6 °C 29.7in /  1004.1hPa WNW 4mph /  6.4km/h 8mph /  12.9km/h 49% 0in /  0.0mm 302 W/m2
16:41 71.4 °F /  21.9 °C 49.6 °F /  9.8 °C 29.7in /  1004.1hPa WSW 4mph /  6.4km/h 12mph /  19.3km/h 46% 0in /  0.0mm 202 W/m2
16:46 71.4 °F /  21.9 °C 49.6 °F /  9.8 °C 29.7in /  1004.1hPa WNW 2mph /  3.2km/h 8mph /  12.9km/h 46% 0in /  0.0mm 663 W/m2
16:51 71.8 °F /  22.1 °C 51.1 °F /  10.6 °C 29.7in /  1004.1hPa West 2mph /  3.2km/h 4mph /  6.4km/h 48% 0in /  0.0mm 615 W/m2
16:56 72 °F /  22.2 °C 51.3 °F /  10.7 °C 29.7in /  1004.1hPa NW 4.9mph /  7.9km/h 8mph /  12.9km/h 48% 0in /  0.0mm 589 W/m2
17:01 71.4 °F /  21.9 °C 50.2 °F /  10.1 °C 29.7in /  1004.1hPa WNW 2mph /  3.2km/h 6mph /  9.7km/h 47% 0in /  0.0mm 204 W/m2
17:06 71.2 °F /  21.8 °C 49.5 °F /  9.7 °C 29.7in /  1004.1hPa West 4mph /  6.4km/h 5mph /  8km/h 46% 0in /  0.0mm 577 W/m2
17:11 71.4 °F /  21.9 °C 49.6 °F /  9.8 °C 29.6in /  1003.7hPa WNW 2.9mph /  4.7km/h 3mph /  4.8km/h 46% 0in /  0.0mm 568 W/m2
17:16 71.8 °F /  22.1 °C 49.8 °F /  9.9 °C 29.7in /  1004.1hPa WNW 2mph /  3.2km/h 10mph /  16.1km/h 46% 0in /  0.0mm 561 W/m2
17:21 71.8 °F /  22.1 °C 49.3 °F /  9.6 °C 29.7in /  1004.1hPa WNW 4.9mph /  7.9km/h 7mph /  11.3km/h 45% 0in /  0.0mm 575 W/m2
17:26 71.4 °F /  21.9 °C 48.9 °F /  9.4 °C 29.7in /  1004.1hPa West 8.1mph /  13km/h 10mph /  16.1km/h 45% 0in /  0.0mm 107 W/m2
17:31 71.2 °F /  21.8 °C 49.5 °F /  9.7 °C 29.7in /  1004.1hPa WNW 2.9mph /  4.7km/h 4mph /  6.4km/h 46% 0in /  0.0mm 573 W/m2
17:37 71.6 °F /  22 °C 50.4 °F /  10.2 °C 29.7in /  1004.1hPa West 2.9mph /  4.7km/h 3mph /  4.8km/h 47% 0in /  0.0mm 547 W/m2
17:42 71.4 °F /  21.9 °C 49.6 °F /  9.8 °C 29.7in /  1004.1hPa West 4mph /  6.4km/h 14mph /  22.5km/h 46% 0in /  0.0mm 114 W/m2
17:47 71.1 °F /  21.7 °C 49.3 °F /  9.6 °C 29.7in /  1004.1hPa Calm   2mph /  3.2km/h 46% 0in /  0.0mm 524 W/m2
17:52 70.9 °F /  21.6 °C 49.6 °F /  9.8 °C 29.7in /  1004.1hPa West 4mph /  6.4km/h 14mph /  22.5km/h 47% 0in /  0.0mm 121 W/m2
17:57 70.5 °F /  21.4 °C 49.3 °F /  9.6 °C 29.7in /  1004.1hPa WSW 2mph /  3.2km/h 4mph /  6.4km/h 47% 0in /  0.0mm 216 W/m2
18:02 70.7 °F /  21.5 °C 50 °F /  10 °C 29.7in /  1004.1hPa WNW 2.9mph /  4.7km/h 7mph /  11.3km/h 48% 0in /  0.0mm 462 W/m2
18:07 70.5 °F /  21.4 °C 50.4 °F /  10.2 °C 29.7in /  1004.1hPa West 2mph /  3.2km/h 10mph /  16.1km/h 49% 0in /  0.0mm 132 W/m2
18:12 70.2 °F /  21.2 °C 50.2 °F /  10.1 °C 29.7in /  1004.1hPa WNW 4mph /  6.4km/h 5mph /  8km/h 49% 0in /  0.0mm 84 W/m2
18:17 69.6 °F /  20.9 °C 50.2 °F /  10.1 °C 29.7in /  1004.1hPa WSW 2.9mph /  4.7km/h 9mph /  14.5km/h 50% 0in /  0.0mm 81 W/m2
18:22 69.4 °F /  20.8 °C 50.5 °F /  10.3 °C 29.7in /  1004.1hPa NW 4mph /  6.4km/h 4mph /  6.4km/h 51% 0in /  0.0mm 107 W/m2
18:27 69.6 °F /  20.9 °C 50.7 °F /  10.4 °C 29.7in /  1004.1hPa NW 4.9mph /  7.9km/h 9mph /  14.5km/h 51% 0in /  0.0mm 127 W/m2
18:32 69.6 °F /  20.9 °C 50.2 °F /  10.1 °C 29.7in /  1004.1hPa WSW 4.9mph /  7.9km/h 8mph /  12.9km/h 50% 0in /  0.0mm 123 W/m2
18:37 69.3 °F /  20.7 °C 50.4 °F /  10.2 °C 29.7in /  1004.1hPa West 2mph /  3.2km/h 8mph /  12.9km/h 51% 0in /  0.0mm 100 W/m2
18:42 68.9 °F /  20.5 °C 50.5 °F /  10.3 °C 29.7in /  1004.1hPa West 4mph /  6.4km/h 8mph /  12.9km/h 52% 0in /  0.0mm 58 W/m2
18:47 68.7 °F /  20.4 °C 50.9 °F /  10.5 °C 29.7in /  1004.1hPa WNW 4mph /  6.4km/h 4mph /  6.4km/h 53% 0in /  0.0mm 46 W/m2
18:52 68.5 °F /  20.3 °C 51.3 °F /  10.7 °C 29.7in /  1004.1hPa WNW 0.9mph /  1.4km/h 4mph /  6.4km/h 54% 0in /  0.0mm 121 W/m2
18:57 68.7 °F /  20.4 °C 51.4 °F /  10.8 °C 29.7in /  1004.1hPa WNW 4mph /  6.4km/h 7mph /  11.3km/h 54% 0in /  0.0mm 77 W/m2
19:02 68.5 °F /  20.3 °C 51.3 °F /  10.7 °C 29.7in /  1004.4hPa West 2.9mph /  4.7km/h 6mph /  9.7km/h 54% 0in /  0.0mm 67 W/m2
19:07 68.4 °F /  20.2 °C 51.1 °F /  10.6 °C 29.7in /  1004.4hPa WSW 4mph /  6.4km/h 4mph /  6.4km/h 54% 0in /  0.0mm 181 W/m2
19:12 68.4 °F /  20.2 °C 51.1 °F /  10.6 °C 29.7in /  1004.1hPa WSW 2mph /  3.2km/h 4mph /  6.4km/h 54% 0in /  0.0mm 42 W/m2
19:17 68 °F /  20 °C 51.3 °F /  10.7 °C 29.7in /  1004.4hPa NW 2.9mph /  4.7km/h 7mph /  11.3km/h 55% 0in /  0.0mm 35 W/m2
19:22 67.6 °F /  19.8 °C 51.4 °F /  10.8 °C 29.7in /  1004.4hPa West 2.9mph /  4.7km/h 6mph /  9.7km/h 56% 0in /  0.0mm 35 W/m2
19:27 67.3 °F /  19.6 °C 51.4 °F /  10.8 °C 29.7in /  1004.4hPa WSW 2mph /  3.2km/h 7mph /  11.3km/h 57% 0in /  0.0mm 30 W/m2
19:32 66.7 °F /  19.3 °C 51.1 °F /  10.6 °C 29.7in /  1004.4hPa West 4mph /  6.4km/h 4mph /  6.4km/h 57% 0in /  0.0mm 25 W/m2
19:37 66.4 °F /  19.1 °C 51.1 °F /  10.6 °C 29.7in /  1004.4hPa WSW 4.9mph /  7.9km/h 7mph /  11.3km/h 58% 0in /  0.0mm 26 W/m2
19:42 66 °F /  18.9 °C 50.9 °F /  10.5 °C 29.7in /  1004.4hPa WSW 4mph /  6.4km/h 6mph /  9.7km/h 58% 0in /  0.0mm 23 W/m2
19:47 65.8 °F /  18.8 °C 50.7 °F /  10.4 °C 29.7in /  1004.4hPa West 2.9mph /  4.7km/h 6mph /  9.7km/h 58% 0in /  0.0mm 19 W/m2
19:52 65.5 °F /  18.6 °C 50.7 °F /  10.4 °C 29.7in /  1004.4hPa WNW 4mph /  6.4km/h 5mph /  8km/h 59% 0in /  0.0mm 18 W/m2
19:57 65.5 °F /  18.6 °C 50.7 °F /  10.4 °C 29.7in /  1004.7hPa SW 2mph /  3.2km/h 6mph /  9.7km/h 59% 0in /  0.0mm 16 W/m2
20:02 65.1 °F /  18.4 °C 50.9 °F /  10.5 °C 29.7in /  1004.7hPa SW 4mph /  6.4km/h 6mph /  9.7km/h 60% 0in /  0.0mm 14 W/m2
20:07 64.9 °F /  18.3 °C 50.7 °F /  10.4 °C 29.7in /  1004.7hPa West 2mph /  3.2km/h 8mph /  12.9km/h 60% 0in /  0.0mm 9 W/m2
20:12 64.8 °F /  18.2 °C 50.5 °F /  10.3 °C 29.7in /  1004.7hPa West 2.9mph /  4.7km/h 7mph /  11.3km/h 60% 0in /  0.0mm 7 W/m2
20:17 64.8 °F /  18.2 °C 50.5 °F /  10.3 °C 29.7in /  1004.7hPa West 2mph /  3.2km/h 4mph /  6.4km/h 60% 0in /  0.0mm 5 W/m2
20:22 64.6 °F /  18.1 °C 50.9 °F /  10.5 °C 29.7in /  1004.7hPa WSW 2mph /  3.2km/h 4mph /  6.4km/h 61% 0in /  0.0mm 5 W/m2
20:27 64.2 °F /  17.9 °C 50.5 °F /  10.3 °C 29.7in /  1004.7hPa West 0.9mph /  1.4km/h 2mph /  3.2km/h 61% 0in /  0.0mm 0 W/m2
20:32 64 °F /  17.8 °C 50.7 °F /  10.4 °C 29.7in /  1004.7hPa WSW 2mph /  3.2km/h 2mph /  3.2km/h 62% 0in /  0.0mm 0 W/m2
20:37 63.7 °F /  17.6 °C 50.4 °F /  10.2 °C 29.7in /  1004.7hPa Calm   2mph /  3.2km/h 62% 0in /  0.0mm 0 W/m2
20:43 63.5 °F /  17.5 °C 50.7 °F /  10.4 °C 29.7in /  1004.7hPa WSW 0.9mph /  1.4km/h 3mph /  4.8km/h 63% 0in /  0.0mm 0 W/m2
20:48 63.3 °F /  17.4 °C 50.5 °F /  10.3 °C 29.7in /  1004.7hPa WSW 0.9mph /  1.4km/h 2mph /  3.2km/h 63% 0in /  0.0mm 0 W/m2
20:53 63.1 °F /  17.3 °C 50.7 °F /  10.4 °C 29.7in /  1005.1hPa NW 0.9mph /  1.4km/h 3mph /  4.8km/h 64% 0in /  0.0mm 0 W/m2
20:58 63 °F /  17.2 °C 51.1 °F /  10.6 °C 29.7in /  1005.1hPa NW 0.9mph /  1.4km/h 2mph /  3.2km/h 65% 0in /  0.0mm 0 W/m2
21:03 62.8 °F /  17.1 °C 51.3 °F /  10.7 °C 29.7in /  1005.1hPa Calm   1mph /  1.6km/h 66% 0in /  0.0mm 0 W/m2
21:08 62.4 °F /  16.9 °C 50.9 °F /  10.5 °C 29.7in /  1005.1hPa Calm   3mph /  4.8km/h 66% 0in /  0.0mm 0 W/m2
21:13 62.4 °F /  16.9 °C 51.3 °F /  10.7 °C 29.7in /  1005.1hPa West 0.9mph /  1.4km/h 1mph /  1.6km/h 67% 0in /  0.0mm 0 W/m2
21:18 62.2 °F /  16.8 °C 51.1 °F /  10.6 °C 29.7in /  1005.1hPa Calm   3mph /  4.8km/h 67% 0in /  0.0mm 0 W/m2
21:23 62.1 °F /  16.7 °C 51.4 °F /  10.8 °C 29.7in /  1005.1hPa Calm     68% 0in /  0.0mm 0 W/m2
21:28 61.9 °F /  16.6 °C 50.7 °F /  10.4 °C 29.7in /  1005.1hPa Calm   1mph /  1.6km/h 67% 0in /  0.0mm 0 W/m2
21:33 61.7 °F /  16.5 °C 51.1 °F /  10.6 °C 29.7in /  1005.1hPa Calm     68% 0in /  0.0mm 0 W/m2
21:38 61.3 °F /  16.3 °C 51.1 °F /  10.6 °C 29.7in /  1005.1hPa Calm     69% 0in /  0.0mm 0 W/m2
21:43 61.2 °F /  16.2 °C 51.3 °F /  10.7 °C 29.7in /  1005.1hPa West 0.9mph /  1.4km/h 2mph /  3.2km/h 70% 0in /  0.0mm 0 W/m2
21:48 61 °F /  16.1 °C 51.4 °F /  10.8 °C 29.7in /  1005.4hPa West 0.9mph /  1.4km/h 2mph /  3.2km/h 71% 0in /  0.0mm 0 W/m2
21:53 60.4 °F /  15.8 °C 51.4 °F /  10.8 °C 29.7in /  1005.4hPa Calm     72% 0in /  0.0mm 0 W/m2
21:58 60.3 °F /  15.7 °C 51.6 °F /  10.9 °C 29.7in /  1005.4hPa West 0.9mph /  1.4km/h 2mph /  3.2km/h 73% 0in /  0.0mm 0 W/m2
22:03 59.7 °F /  15.4 °C 51.4 °F /  10.8 °C 29.7in /  1005.4hPa Calm   3mph /  4.8km/h 74% 0in /  0.0mm 0 W/m2
22:08 59.5 °F /  15.3 °C 51.3 °F /  10.7 °C 29.7in /  1005.4hPa Calm   1mph /  1.6km/h 74% 0in /  0.0mm 0 W/m2
22:13 59.4 °F /  15.2 °C 51.4 °F /  10.8 °C 29.7in /  1005.8hPa Calm   3mph /  4.8km/h 75% 0in /  0.0mm 0 W/m2
22:18 59.2 °F /  15.1 °C 51.6 °F /  10.9 °C 29.7in /  1005.8hPa Calm     76% 0in /  0.0mm 0 W/m2
22:23 58.8 °F /  14.9 °C 51.3 °F /  10.7 °C 29.7in /  1005.8hPa Calm     76% 0in /  0.0mm 0 W/m2
22:28 58.6 °F /  14.8 °C 51.4 °F /  10.8 °C 29.7in /  1005.8hPa Calm     77% 0in /  0.0mm 0 W/m2
22:33 58.3 °F /  14.6 °C 51.1 °F /  10.6 °C 29.7in /  1005.8hPa SW 0.9mph /  1.4km/h 3mph /  4.8km/h 77% 0in /  0.0mm 0 W/m2
22:38 57.9 °F /  14.4 °C 50.7 °F /  10.4 °C 29.7in /  1005.8hPa Calm   1mph /  1.6km/h 77% 0in /  0.0mm 0 W/m2
22:43 57.7 °F /  14.3 °C 50.9 °F /  10.5 °C 29.7in /  1005.8hPa Calm   3mph /  4.8km/h 78% 0in /  0.0mm 0 W/m2
22:48 57.6 °F /  14.2 °C 51.1 °F /  10.6 °C 29.7in /  1005.8hPa Calm     79% 0in /  0.0mm 0 W/m2
22:53 57.4 °F /  14.1 °C 50.9 °F /  10.5 °C 29.7in /  1005.8hPa Calm   1mph /  1.6km/h 79% 0in /  0.0mm 0 W/m2
22:58 57.4 °F /  14.1 °C 51.3 °F /  10.7 °C 29.7in /  1005.8hPa Calm   1mph /  1.6km/h 80% 0in /  0.0mm 0 W/m2
23:03 57 °F /  13.9 °C 50.9 °F /  10.5 °C 29.7in /  1005.8hPa Calm     80% 0in /  0.0mm 0 W/m2
23:08 57 °F /  13.9 °C 50.9 °F /  10.5 °C 29.7in /  1005.8hPa Calm     80% 0in /  0.0mm 0 W/m2
23:13 56.8 °F /  13.8 °C 50.7 °F /  10.4 °C 29.7in /  1005.8hPa Calm     80% 0in /  0.0mm 0 W/m2
23:19 56.5 °F /  13.6 °C 50.4 °F /  10.2 °C 29.7in /  1006.1hPa Calm     80% 0in /  0.0mm 0 W/m2
23:24 56.3 °F /  13.5 °C 50.5 °F /  10.3 °C 29.7in /  1006.1hPa Calm   1mph /  1.6km/h 81% 0in /  0.0mm 0 W/m2
23:29 56.1 °F /  13.4 °C 50.4 °F /  10.2 °C 29.7in /  1006.1hPa Calm     81% 0in /  0.0mm 0 W/m2
23:34 55.9 °F /  13.3 °C 50.2 °F /  10.1 °C 29.7in /  1006.1hPa Calm   1mph /  1.6km/h 81% 0in /  0.0mm 0 W/m2
23:39 55.8 °F /  13.2 °C 50.4 °F /  10.2 °C 29.7in /  1006.1hPa Calm     82% 0in /  0.0mm 0 W/m2
23:44 55.8 °F /  13.2 °C 50.4 °F /  10.2 °C 29.7in /  1006.1hPa Calm     82% 0in /  0.0mm 0 W/m2
23:49 55.8 °F /  13.2 °C 50.7 °F /  10.4 °C 29.7in /  1005.8hPa Calm     83% 0in /  0.0mm 0 W/m2
23:54 55.8 °F /  13.2 °C 50.7 °F /  10.4 °C 29.7in /  1005.8hPa Calm     83% 0in /  0.0mm 0 W/m2
23:59 55.6 °F /  13.1 °C 50.5 °F /  10.3 °C 29.7in /  1005.8hPa Calm     83% 0in /  0.0mm 0 W/m2
Juneau County Weather
Compliments of Weather Underground - 4 mb